Sant Adria de Besos, Spain
Current Conditions -  °F | °C
As of 11:30 AM on Friday 31 Oct 2014 (Local Time) from LELL Reporting Station
Broken Clouds Broken Clouds  
Wind Chill: 66°   Ceiling: 2800
Heat Index: 66°   Visibility: 4mi
Dew Point: 61°   Wind: 1mph
Humidity: 83%   Direction: NA
Pressure: 30.27"   Gusts: NA
Location:  41.43°N, 2.22°E
Report Text: LELL 311030Z VRB01KT 6000 BKN028 19/16 Q1025
Loading
Personal Weather Stations






























Interactive Weather Map
Tropical Storm Tracking
New forecast layout! Learn more

10-Day Weather Forecast

Advertisements
Track Severe Weather on mobile